createdAt,value
2023-01-21T00:04:46.075Z,1
2023-01-21T00:10:08.829Z,1
2023-01-21T00:20:22.419Z,1
2023-01-21T00:25:44.989Z,1.1
2023-01-21T00:31:09.320Z,1.1
2023-01-21T00:36:32.417Z,1.1
2023-01-21T00:41:54.625Z,1.1
2023-01-21T00:47:17.471Z,1.1
2023-01-21T00:52:09.029Z,1.1
2023-01-21T00:57:17.045Z,1.1
2023-01-21T01:02:24.736Z,1.1
2023-01-21T01:07:47.530Z,1.1
2023-01-21T01:13:10.870Z,1.1
2023-01-21T01:18:17.871Z,1.1
2023-01-21T01:23:40.870Z,1.1
2023-01-21T01:29:03.966Z,1.1
2023-01-21T01:34:26.655Z,1.1
2023-01-21T01:39:34.025Z,1.1
2023-01-21T01:44:56.592Z,1.1
2023-01-21T01:50:19.790Z,1.1
2023-01-21T01:55:27.124Z,1.1
2023-01-21T02:00:50.054Z,1.1
2023-01-21T02:06:13.165Z,1.2
2023-01-21T02:11:35.264Z,1.2
2023-01-21T02:16:57.962Z,1.2
2023-01-21T02:22:20.477Z,1.1
2023-01-21T02:27:30.900Z,1.1
2023-01-21T02:32:55.180Z,1.2
2023-01-21T02:38:01.748Z,1.1
2023-01-21T02:43:24.669Z,1.2
2023-01-21T02:48:48.017Z,1.1
2023-01-21T02:54:11.229Z,1.1
2023-01-21T02:59:03.128Z,1.1
2023-01-21T03:04:26.095Z,1.1
2023-01-21T03:09:47.945Z,1.1
2023-01-21T03:14:55.107Z,1.1
2023-01-21T03:20:18.864Z,1.1
2023-01-21T03:25:40.637Z,1.1
2023-01-21T03:31:03.507Z,1.1
2023-01-21T03:36:27.009Z,1
2023-01-21T03:41:33.650Z,0.9
2023-01-21T03:46:40.836Z,0.9
2023-01-21T03:51:48.355Z,0.8
2023-01-21T03:57:10.663Z,0.8
2023-01-21T04:02:18.054Z,0.7
2023-01-21T04:07:25.644Z,0.6
2023-01-21T04:12:48.321Z,0.5
2023-01-21T04:23:07.487Z,0.4
2023-01-21T04:28:32.899Z,0.3
2023-01-21T04:33:55.179Z,0.2
2023-01-21T04:39:17.494Z,0.1
2023-01-21T04:44:40.427Z,0.1
2023-01-21T04:50:02.699Z,0.1
2023-01-21T04:55:26.368Z,0
2023-01-21T05:00:33.753Z,-0.1
2023-01-21T05:05:40.887Z,-0.1
2023-01-21T05:11:04.772Z,-0.1
2023-01-21T05:16:27.291Z,-0.1
2023-01-21T05:21:34.721Z,-0.1
2023-01-21T05:26:57.587Z,-0.1
2023-01-21T05:32:20.796Z,-0.2
2023-01-21T05:37:12.434Z,-0.3
2023-01-21T05:42:35.889Z,-0.3
2023-01-21T05:48:00.393Z,-0.3
2023-01-21T05:53:23.440Z,-0.4
2023-01-21T05:58:45.357Z,-0.4
2023-01-21T06:03:52.580Z,-0.4
2023-01-21T06:09:15.053Z,-0.6
2023-01-21T06:14:38.159Z,-0.6
2023-01-21T06:19:45.430Z,-0.6
2023-01-21T06:25:08.488Z,-0.6
2023-01-21T06:30:16.056Z,-0.5
2023-01-21T06:35:24.660Z,-0.4
2023-01-21T06:40:47.350Z,-0.2
2023-01-21T06:46:11.596Z,0.3
2023-01-21T06:51:29.103Z,1
2023-01-21T06:56:52.096Z,2.3
2023-01-21T07:02:14.571Z,3.6
2023-01-21T07:07:22.329Z,5
2023-01-21T07:12:29.904Z,6.4
2023-01-21T07:17:53.874Z,8.1
2023-01-21T07:23:00.873Z,9.9
2023-01-21T07:28:23.985Z,11.9
2023-01-21T07:33:49.992Z,14.1
2023-01-21T07:39:12.030Z,16.3
2023-01-21T07:44:34.216Z,39.8
2023-01-21T07:49:59.523Z,37.4
2023-01-21T07:55:22.048Z,36.2
2023-01-21T08:00:44.572Z,39.1
2023-01-21T08:06:07.907Z,56.8
2023-01-21T08:11:30.184Z,55.4
2023-01-21T08:16:53.238Z,55.6
2023-01-21T08:22:16.000Z,56.1
2023-01-21T08:27:38.625Z,57.1
2023-01-21T08:33:01.283Z,57.8
2023-01-21T08:38:24.560Z,58.3
2023-01-21T08:43:47.110Z,59
2023-01-21T08:49:10.013Z,59.4
2023-01-21T08:59:40.579Z,59.8
2023-01-21T09:04:48.592Z,59.9
2023-01-21T09:10:11.378Z,59.8
2023-01-21T09:15:34.441Z,59.6
2023-01-21T09:20:57.616Z,58.8
2023-01-21T09:26:20.326Z,58
2023-01-21T09:31:43.613Z,59.4
2023-01-21T09:36:22.710Z,60.2
2023-01-21T09:41:45.831Z,59.9
2023-01-21T09:47:09.075Z,61.1
2023-01-21T09:52:31.800Z,61
2023-01-21T09:57:55.309Z,60.1
2023-01-21T10:03:19.641Z,60.4
2023-01-21T10:08:42.854Z,61.1
2023-01-21T10:14:05.902Z,61.8
2023-01-21T10:19:28.841Z,62.2
2023-01-21T10:24:53.902Z,62.8
2023-01-21T10:30:16.838Z,61.8
2023-01-21T10:40:33.935Z,62.6
2023-01-21T10:45:57.953Z,63.2
2023-01-21T10:51:22.639Z,63.2
2023-01-21T10:56:45.871Z,63.6
2023-01-21T11:02:10.477Z,63.9
2023-01-21T11:07:18.099Z,64.3
2023-01-21T11:12:41.044Z,64.4
2023-01-21T11:18:04.870Z,64.5
2023-01-21T11:23:29.948Z,64.8
2023-01-21T11:28:52.597Z,64.7
2023-01-21T11:34:08.766Z,64.9
2023-01-21T11:39:15.867Z,65.1
2023-01-21T11:44:38.971Z,64
2023-01-21T11:50:02.134Z,62.8
2023-01-21T11:55:25.430Z,59.2
2023-01-21T12:00:48.042Z,56.1
2023-01-21T12:06:11.058Z,52.8
2023-01-21T12:11:33.920Z,50
2023-01-21T12:16:58.537Z,47.8
2023-01-21T12:22:21.958Z,45.7
2023-01-21T12:32:52.402Z,45.2
2023-01-21T12:38:15.207Z,45.6
2023-01-21T12:43:38.199Z,44.3
2023-01-21T12:49:02.114Z,43
2023-01-21T12:54:25.580Z,41.6
2023-01-21T12:59:49.786Z,40.1
2023-01-21T13:05:12.938Z,38.4
2023-01-21T13:10:39.210Z,36.8
2023-01-21T13:15:46.346Z,35.3
2023-01-21T13:20:54.187Z,33.6
2023-01-21T13:26:17.368Z,31.8
2023-01-21T13:31:41.902Z,30.1
2023-01-21T13:37:04.886Z,28.4
2023-01-21T13:42:27.460Z,27.1
2023-01-21T13:47:50.463Z,25.8
2023-01-21T13:53:13.161Z,24.9
2023-01-21T13:58:35.960Z,24
2023-01-21T14:03:43.755Z,23.3
2023-01-21T14:09:07.888Z,22.6
2023-01-21T14:14:30.789Z,21.9
2023-01-21T14:25:00.852Z,20.4
2023-01-21T14:30:25.120Z,19.8
2023-01-21T14:35:48.299Z,19.1
2023-01-21T14:41:11.806Z,18.4
2023-01-21T14:46:36.915Z,17.9
2023-01-21T14:51:59.905Z,17.3
2023-01-21T14:57:34.831Z,16.8
2023-01-21T15:02:59.341Z,16.2
2023-01-21T15:08:22.264Z,15.7
2023-01-21T15:13:47.767Z,15.3
2023-01-21T15:19:12.452Z,14.8
2023-01-21T15:24:37.931Z,14.3
2023-01-21T15:30:00.088Z,13.9
2023-01-21T15:35:32.782Z,13.4
2023-01-21T15:40:55.192Z,13.1
2023-01-21T15:46:19.221Z,12.6
2023-01-21T15:51:51.939Z,12.3
2023-01-21T15:57:14.704Z,12
2023-01-21T16:02:39.549Z,11.7
2023-01-21T16:08:03.157Z,11.4
2023-01-21T16:13:26.238Z,11.1
2023-01-21T16:18:49.881Z,10.9
2023-01-21T16:24:15.062Z,10.6
2023-01-21T16:29:09.764Z,10.4
2023-01-21T16:34:18.613Z,10.3
2023-01-21T16:39:42.007Z,10.1
2023-01-21T16:45:03.889Z,9.9
2023-01-21T16:50:11.433Z,9.7
2023-01-21T16:55:35.332Z,9.6
2023-01-21T17:00:58.640Z,9.4
2023-01-21T17:06:21.997Z,9.3
2023-01-21T17:11:29.941Z,9.1
2023-01-21T17:16:53.419Z,8.9
2023-01-21T17:22:18.384Z,8.8
2023-01-21T17:27:42.200Z,8.6
2023-01-21T17:32:50.863Z,8.5
2023-01-21T17:38:00.876Z,8.4
2023-01-21T17:43:25.098Z,8.3
2023-01-21T17:49:11.980Z,8.2
2023-01-21T17:54:39.764Z,8
2023-01-21T18:00:06.436Z,7.9
2023-01-21T18:05:18.599Z,7.8
2023-01-21T18:10:32.071Z,7.7
2023-01-21T18:16:04.659Z,7.6
2023-01-21T18:21:31.807Z,7.5
2023-01-21T18:26:57.642Z,7.4
2023-01-21T18:32:25.273Z,7.4
2023-01-21T18:37:37.251Z,7.3
2023-01-21T18:42:48.021Z,7.3
2023-01-21T18:48:15.789Z,7.2
2023-01-21T18:53:41.361Z,7.1
2023-01-21T18:59:06.438Z,7.1
2023-01-21T19:04:34.792Z,6.9
2023-01-21T19:10:02.400Z,6.9
2023-01-21T19:15:31.557Z,6.8
2023-01-21T19:21:04.022Z,6.7
2023-01-21T19:26:35.343Z,6.6
2023-01-21T19:32:08.198Z,6.4
2023-01-21T19:37:39.636Z,6.4
2023-01-21T19:43:05.417Z,6.3
2023-01-21T19:48:38.583Z,6.2
2023-01-21T19:53:55.213Z,6.1
2023-01-21T19:59:28.617Z,5.9
2023-01-21T20:05:12.597Z,5.9
2023-01-21T20:15:56.891Z,5.8
2023-01-21T20:21:24.859Z,5.8
2023-01-21T20:27:09.603Z,5.7
2023-01-21T20:32:55.363Z,5.6
2023-01-21T20:38:20.145Z,5.6
2023-01-21T20:43:44.652Z,5.6
2023-01-21T20:49:05.872Z,5.5
2023-01-21T20:54:29.625Z,5.5
2023-01-21T20:59:55.127Z,5.4
2023-01-21T21:05:07.592Z,5.4
2023-01-21T21:10:33.821Z,5.4
2023-01-21T21:15:41.999Z,5.4
2023-01-21T21:21:05.372Z,5.4
2023-01-21T21:26:14.446Z,5.4
2023-01-21T21:31:38.595Z,5.4
2023-01-21T21:37:02.225Z,5.3
2023-01-21T21:42:25.319Z,5.3
2023-01-21T21:47:48.829Z,5.3
2023-01-21T21:52:56.911Z,5.3
2023-01-21T21:58:19.470Z,5.3
2023-01-21T22:03:42.754Z,5.2
2023-01-21T22:09:05.349Z,5.1
2023-01-21T22:14:28.350Z,5.1
2023-01-21T22:19:54.208Z,5
2023-01-21T22:25:16.051Z,4.9
2023-01-21T22:30:39.878Z,4.8
2023-01-21T22:36:03.307Z,4.8
2023-01-21T22:41:26.028Z,4.7
2023-01-21T22:46:50.027Z,4.6
2023-01-21T22:51:57.230Z,4.5
2023-01-21T22:57:27.447Z,4.4
2023-01-21T23:02:34.062Z,4.4
2023-01-21T23:13:21.459Z,4.3
2023-01-21T23:18:13.255Z,4.2
2023-01-21T23:23:36.360Z,4.2
2023-01-21T23:28:59.215Z,4.2
2023-01-21T23:33:51.595Z,4.2
2023-01-21T23:39:17.233Z,4.3
2023-01-21T23:44:38.946Z,4.3
2023-01-21T23:50:01.913Z,4.3
2023-01-21T23:55:25.006Z,4.3
